Terminal Aerodrome Forecast
Issued by NWS Cleveland, OH

Home | Current Version | Previous Version | Graphics & Text | Print | Product List | Glossary On
Versions: 1 2 3 4 5 6 7 8 9 10 11 12 13 14
000
FTUS41 KCLE 220943 AAA
TAFYNG
TAF AMD
KYNG 220943Z 2210/2306 35014G20KT P6SM SCT026 BKN035
      TEMPO 2210/2214 4SM -SHSN BKN026
     FM221800 35012KT P6SM SCT035
     FM230000 35005KT P6SM FEW250=

USA.gov is the U.S. government's official web portal to all federal, state and local government web resources and services.